Time;durP1;ratioP1;P1;durP2;ratioP2;P2;SDS_P1;SDS_P2;PMS_P1;PMS_P2;Temp;Humidity;BMP_temperature;BMP_pressure;BME280_temperature;BME280_humidity;BME280_pressure;Samples;Min_cycle;Max_cycle;Signal;HPM_P1;HPM_P2
2021/07/31 00:00:19;;;;;;;5.53;2.40;;;20.10;1.00;20.50;99911.00;;;;5001464;28;20461;-76
2021/07/31 00:02:47;;;;;;;8.30;2.20;;;20.00;1.00;20.40;99887.00;;;;5002168;28;20482;-75
2021/07/31 00:05:16;;;;;;;6.20;2.50;;;20.00;1.00;20.50;99905.00;;;;5002806;28;20461;-76
2021/07/31 00:07:46;;;;;;;6.10;2.90;;;20.00;1.00;20.50;99879.00;;;;5025682;28;20470;-76
2021/07/31 00:10:14;;;;;;;4.23;2.50;;;20.00;1.00;20.50;99902.00;;;;5029063;28;20496;-76
2021/07/31 00:12:43;;;;;;;5.33;2.47;;;20.00;1.00;20.50;99910.00;;;;5021547;28;20477;-77
2021/07/31 00:15:12;;;;;;;7.60;2.27;;;20.00;1.00;20.50;99911.00;;;;5013716;28;20465;-77
2021/07/31 00:17:40;;;;;;;3.57;1.90;;;20.10;1.00;20.50;99883.00;;;;5008882;28;20520;-75
2021/07/31 00:20:10;;;;;;;4.10;2.10;;;20.00;1.00;20.50;99912.00;;;;5007128;28;20458;-76
2021/07/31 00:22:38;;;;;;;4.37;1.70;;;20.00;1.00;20.40;99913.00;;;;5008685;28;20672;-75
2021/07/31 00:25:10;;;;;;;4.80;2.40;;;20.00;1.00;20.40;99895.00;;;;5009135;28;20962;-77
2021/07/31 00:27:38;;;;;;;5.73;2.47;;;19.90;1.00;20.40;99900.00;;;;5017688;28;20464;-74
2021/07/31 00:30:08;;;;;;;7.67;1.73;;;19.90;1.00;20.40;99910.00;;;;5023360;28;20522;-75
2021/07/31 00:32:36;;;;;;;3.83;1.43;;;19.90;1.00;20.30;99842.00;;;;5007841;28;20507;-76
2021/07/31 00:35:06;;;;;;;5.67;1.90;;;19.90;1.00;20.30;99896.00;;;;5004142;28;20464;-76
2021/07/31 00:37:34;;;;;;;3.70;1.60;;;19.90;1.00;20.30;99902.00;;;;5014384;28;20491;-77
2021/07/31 00:40:04;;;;;;;4.37;1.70;;;19.90;1.00;20.30;99897.00;;;;5003990;28;20471;-76
2021/07/31 00:42:34;;;;;;;3.73;2.00;;;19.90;1.00;20.30;99892.00;;;;5015402;28;20516;-75
2021/07/31 00:45:02;;;;;;;4.10;1.60;;;19.80;1.00;20.30;99875.00;;;;5008406;28;20621;-75
2021/07/31 00:47:31;;;;;;;3.90;1.97;;;19.80;1.00;20.20;99898.00;;;;5007337;28;20565;-76
2021/07/31 00:50:01;;;;;;;4.80;1.83;;;19.80;1.00;20.20;99907.00;;;;4996421;28;20486;-76
2021/07/31 00:52:30;;;;;;;5.53;1.90;;;19.80;1.00;20.10;99908.00;;;;5003486;28;20491;-75
2021/07/31 00:55:01;;;;;;;9.13;2.07;;;19.70;1.00;20.10;99898.00;;;;5002709;28;20462;-74
2021/07/31 00:57:32;;;;;;;6.90;1.63;;;19.70;1.00;20.10;99893.00;;;;5000435;28;20489;-73
2021/07/31 01:00:24;;;;;;;4.87;1.70;;;19.60;1.00;20.00;99890.00;;;;5008739;27;20461;-75
2021/07/31 01:02:52;;;;;;;5.63;2.20;;;19.50;1.00;19.90;99896.00;;;;5009908;28;20991;-76
2021/07/31 01:05:21;;;;;;;3.57;1.40;;;19.50;1.00;19.90;99886.00;;;;5002119;28;20574;-74
2021/07/31 01:07:52;;;;;;;4.73;1.87;;;19.50;1.00;19.90;99884.00;;;;5004725;28;20885;-75
2021/07/31 01:10:22;;;;;;;5.93;2.17;;;19.50;1.00;20.00;99891.00;;;;5002155;28;21130;-75
2021/07/31 01:12:55;;;;;;;3.73;1.83;;;19.50;1.00;20.00;99881.00;;;;5003378;28;20490;-74
2021/07/31 01:15:23;;;;;;;5.20;1.80;;;19.60;1.00;20.00;99876.00;;;;5006532;28;20454;-75
2021/07/31 01:17:52;;;;;;;6.40;2.40;;;19.50;1.00;19.90;99840.00;;;;5002349;28;20950;-75
2021/07/31 01:20:23;;;;;;;5.40;2.10;;;19.50;1.00;19.90;99884.00;;;;5009258;28;20905;-76
2021/07/31 01:23:01;;;;;;;4.60;2.20;;;19.50;1.00;19.80;99887.00;;;;5006498;28;20525;-75
2021/07/31 01:25:30;;;;;;;4.13;2.10;;;19.40;1.00;19.90;99868.00;;;;5004622;28;20468;-74
2021/07/31 01:27:58;;;;;;;5.93;2.87;;;19.40;1.00;19.90;99881.00;;;;5003123;28;20500;-75
2021/07/31 01:30:27;;;;;;;4.80;2.10;;;19.40;1.00;19.90;99866.00;;;;5002172;28;20834;-73
2021/07/31 01:32:58;;;;;;;4.57;2.23;;;19.40;1.00;19.80;99891.00;;;;4994105;28;20493;-75
2021/07/31 01:35:28;;;;;;;5.03;2.33;;;19.30;1.00;19.70;99866.00;;;;5001601;28;20548;-75
2021/07/31 01:37:58;;;;;;;3.83;2.00;;;19.30;1.00;19.70;99888.00;;;;5004359;28;20454;-75
2021/07/31 01:40:28;;;;;;;3.90;2.00;;;19.20;1.00;19.70;99884.00;;;;5009395;28;20458;-74
2021/07/31 01:42:58;;;;;;;3.47;2.13;;;19.20;1.00;19.60;99870.00;;;;5032642;28;20454;-74
2021/07/31 01:45:28;;;;;;;5.93;1.80;;;19.10;1.00;19.70;99892.00;;;;5024291;28;20462;-74
2021/07/31 01:47:59;;;;;;;4.57;1.63;;;19.20;1.00;19.60;99869.00;;;;5021865;28;20481;-76
2021/07/31 01:50:28;;;;;;;5.10;1.97;;;19.10;1.00;19.60;99878.00;;;;5004428;28;20531;-76
2021/07/31 01:52:56;;;;;;;6.40;2.17;;;19.10;1.00;19.60;99884.00;;;;4994269;28;20464;-76
2021/07/31 01:55:25;;;;;;;6.60;1.97;;;19.10;1.00;19.60;99878.00;;;;5002105;28;20476;-74
2021/07/31 01:58:01;;;;;;;3.10;1.90;;;19.10;1.00;19.60;99871.00;;;;5000993;28;20461;-74
2021/07/31 02:00:49;;;;;;;2.60;1.80;;;19.00;1.00;19.50;99874.00;;;;5002953;28;20498;-76
2021/07/31 02:03:18;;;;;;;7.90;2.10;;;18.90;1.00;19.50;99884.00;;;;4997378;28;20982;-75
2021/07/31 02:06:06;;;;;;;3.70;2.00;;;18.90;1.00;19.50;99884.00;;;;4997428;28;20457;-75
2021/07/31 02:08:35;;;;;;;4.97;2.13;;;18.80;1.00;19.50;99881.00;;;;4997867;28;20545;-74
2021/07/31 02:11:03;;;;;;;4.73;2.20;;;18.80;1.00;19.40;99882.00;;;;5000323;28;20479;-75
2021/07/31 02:13:34;;;;;;;4.43;2.30;;;18.80;1.00;19.40;99868.00;;;;4998899;28;20453;-75
2021/07/31 02:16:06;;;;;;;4.50;2.63;;;18.70;1.00;19.30;99892.00;;;;4995969;28;20466;-77
2021/07/31 02:18:35;;;;;;;3.20;1.90;;;18.70;1.00;19.30;99889.00;;;;4996710;28;20454;-74
2021/07/31 02:21:06;;;;;;;4.70;2.47;;;18.70;1.00;19.30;99894.00;;;;4996864;28;20481;-76
2021/07/31 02:23:41;;;;;;;7.50;2.00;;;18.70;1.00;19.20;99899.00;;;;4998600;28;20469;-75
2021/07/31 02:26:28;;;;;;;6.60;2.37;;;18.60;1.00;19.20;99899.00;;;;5001782;28;20452;-76
2021/07/31 02:29:04;;;;;;;6.10;1.90;;;18.60;1.00;19.10;99889.00;;;;4995801;28;20456;-76
2021/07/31 02:31:38;;;;;;;4.53;2.00;;;18.60;1.00;19.10;99886.00;;;;4999466;28;20568;-76
2021/07/31 02:34:08;;;;;;;6.20;2.13;;;18.50;1.00;19.10;99888.00;;;;4999942;28;20465;-74
2021/07/31 02:36:39;;;;;;;6.47;1.70;;;18.50;1.00;19.00;99893.00;;;;4996874;28;20469;-74
2021/07/31 02:39:19;;;;;;;5.03;2.50;;;18.50;1.00;19.00;99889.00;;;;4996876;28;20481;-75
2021/07/31 02:41:48;;;;;;;5.87;1.80;;;18.50;1.00;19.00;99884.00;;;;4995681;28;20605;-76
2021/07/31 02:44:19;;;;;;;4.70;2.10;;;18.50;1.00;19.00;99894.00;;;;4993707;28;21122;-73
2021/07/31 02:46:48;;;;;;;6.00;2.03;;;18.40;1.00;19.00;99883.00;;;;4990232;28;21786;-75
2021/07/31 02:49:17;;;;;;;5.00;2.17;;;18.30;1.00;19.00;99888.00;;;;4981931;28;20539;-75
2021/07/31 02:51:48;;;;;;;7.63;2.30;;;18.30;1.00;18.90;99894.00;;;;4993458;28;20484;-75
2021/07/31 02:54:43;;;;;;;4.80;2.07;;;18.20;1.00;18.80;99845.00;;;;4995525;28;24659;-74
2021/07/31 02:57:12;;;;;;;4.47;2.17;;;18.20;1.00;18.80;99903.00;;;;4987820;28;20455;-74
2021/07/31 02:59:42;;;;;;;4.77;1.73;;;18.10;1.00;18.70;99842.00;;;;4994023;28;20980;-75
2021/07/31 03:02:13;;;;;;;8.33;2.00;;;18.10;1.00;18.70;99873.00;;;;4990079;28;20484;-77
2021/07/31 03:04:48;;;;;;;4.17;1.80;;;18.10;1.00;18.70;99894.00;;;;4996322;28;20489;-77
2021/07/31 03:07:21;;;;;;;3.43;2.03;;;18.00;1.00;18.60;99895.00;;;;4997929;28;20794;-75
2021/07/31 03:09:54;;;;;;;4.33;1.90;;;17.90;1.00;18.50;99846.00;;;;5003984;28;20469;-77
2021/07/31 03:12:26;;;;;;;5.87;2.27;;;17.90;1.00;18.40;99889.00;;;;4997705;28;20489;-76
2021/07/31 03:14:56;;;;;;;3.87;1.93;;;17.90;1.00;18.40;99885.00;;;;5008085;28;20527;-74
2021/07/31 03:17:26;;;;;;;3.87;1.97;;;17.80;1.00;18.40;99902.00;;;;5001762;28;20982;-76
2021/07/31 03:19:55;;;;;;;7.10;1.90;;;17.80;1.00;18.30;99898.00;;;;5002551;28;20508;-75
2021/07/31 03:22:25;;;;;;;3.77;2.07;;;17.70;1.00;18.30;99834.00;;;;5001797;28;20482;-76
2021/07/31 03:24:57;;;;;;;5.80;2.50;;;17.60;1.00;18.20;99888.00;;;;4996077;28;20467;-74
2021/07/31 03:27:27;;;;;;;5.83;2.10;;;17.60;1.00;18.20;99868.00;;;;5003025;28;20476;-73
2021/07/31 03:30:15;;;;;;;4.90;1.83;;;17.60;1.00;18.20;99900.00;;;;5014420;28;20513;-72
2021/07/31 03:33:13;;;;;;;4.03;2.00;;;17.60;1.00;18.10;99890.00;;;;5032119;28;20466;-73
2021/07/31 03:35:44;;;;;;;4.93;2.23;;;17.50;1.00;18.10;99880.00;;;;5019396;28;20525;-73
2021/07/31 03:38:21;;;;;;;5.60;1.97;;;17.50;1.00;18.00;99920.00;;;;5030087;28;20472;-73
2021/07/31 03:40:52;;;;;;;5.63;2.53;;;17.50;1.00;18.10;99903.00;;;;5017371;28;20498;-76
2021/07/31 03:43:25;;;;;;;7.73;2.40;;;17.50;1.00;18.10;99906.00;;;;5003380;28;20476;-75
2021/07/31 03:45:55;;;;;;;5.87;2.50;;;17.40;1.00;18.10;99859.00;;;;4996759;28;20458;-74
2021/07/31 03:48:24;;;;;;;3.70;1.83;;;17.40;1.00;18.00;99853.00;;;;5002306;28;20457;-74
2021/07/31 03:50:53;;;;;;;4.87;1.80;;;17.40;1.00;18.00;99916.00;;;;5003360;28;20504;-74
2021/07/31 03:53:31;;;;;;;5.60;2.33;;;17.40;1.00;17.90;99910.00;;;;5004877;28;20498;-74
2021/07/31 03:56:00;;;;;;;4.90;2.10;;;17.40;1.00;17.90;99904.00;;;;5001943;28;20458;-75
2021/07/31 03:58:30;;;;;;;6.00;2.03;;;17.40;1.00;17.90;99908.00;;;;5001209;28;20464;-76
2021/07/31 04:01:01;;;;;;;6.27;1.93;;;17.40;1.00;17.90;99906.00;;;;5001588;28;20496;-75
2021/07/31 04:03:30;;;;;;;4.17;2.40;;;17.40;1.00;17.90;99880.00;;;;5000991;28;20541;-75
2021/07/31 04:06:01;;;;;;;5.57;2.17;;;17.40;1.00;17.90;99909.00;;;;5002634;28;20457;-75
2021/07/31 04:08:49;;;;;;;5.03;2.43;;;17.40;1.00;18.00;99858.00;;;;5004550;28;20462;-75
2021/07/31 04:11:50;;;;;;;3.20;2.00;;;17.40;1.00;18.00;99916.00;;;;5029453;28;20464;-75
2021/07/31 04:14:45;;;;;;;4.40;2.20;;;17.40;1.00;18.00;99910.00;;;;5020516;28;20466;-76
2021/07/31 04:17:19;;;;;;;6.70;2.40;;;17.40;1.00;18.00;99904.00;;;;4999868;28;20834;-75
2021/07/31 04:19:48;;;;;;;6.60;2.50;;;17.40;1.00;18.00;99903.00;;;;5000345;28;20538;-76
2021/07/31 04:22:17;;;;;;;3.77;1.90;;;17.40;1.00;18.10;99910.00;;;;5010525;28;20509;-76
2021/07/31 04:24:49;;;;;;;4.87;2.30;;;17.50;1.00;18.10;99912.00;;;;5006139;28;20454;-75
2021/07/31 04:27:18;;;;;;;6.97;2.40;;;17.50;1.00;18.10;99896.00;;;;4999857;28;20450;-75
2021/07/31 04:29:46;;;;;;;4.13;2.00;;;17.60;1.00;18.30;99917.00;;;;5003185;28;20549;-75
2021/07/31 04:32:15;;;;;;;8.13;2.40;;;17.60;1.00;18.30;99911.00;;;;5010817;28;20497;-75
2021/07/31 04:34:44;;;;;;;6.47;1.80;;;17.60;1.00;18.40;99871.00;;;;5004010;28;20488;-76
2021/07/31 04:37:13;;;;;;;3.77;1.53;;;17.70;1.00;18.50;99921.00;;;;5000717;28;20515;-75
2021/07/31 04:39:41;;;;;;;4.33;1.87;;;17.70;1.00;18.50;99804.00;;;;4995734;28;21004;-76
2021/07/31 04:42:10;;;;;;;6.33;1.80;;;17.80;1.00;18.50;99901.00;;;;4996270;28;20537;-75
2021/07/31 04:44:38;;;;;;;3.70;1.90;;;17.70;1.00;18.60;99921.00;;;;4996574;28;20468;-75
2021/07/31 04:47:07;;;;;;;5.50;2.17;;;17.80;1.00;18.50;99910.00;;;;4999256;28;21305;-75
2021/07/31 04:49:36;;;;;;;4.20;1.80;;;17.80;1.00;18.60;99921.00;;;;5013663;28;20458;-75
2021/07/31 04:52:09;;;;;;;6.43;1.97;;;17.80;1.00;18.70;99942.00;;;;4998990;28;20538;-75
2021/07/31 04:54:41;;;;;;;3.63;2.03;;;17.80;1.00;18.70;99915.00;;;;4998701;28;20545;-74
2021/07/31 04:57:10;;;;;;;4.13;2.30;;;17.90;1.00;18.80;99921.00;;;;5006014;28;20507;-76
2021/07/31 04:59:38;;;;;;;4.10;1.70;;;17.90;1.00;18.80;99924.00;;;;5017157;28;20496;-74
2021/07/31 05:02:07;;;;;;;6.10;2.30;;;18.00;1.00;18.80;99907.00;;;;5002083;28;20516;-75
2021/07/31 05:04:36;;;;;;;5.97;2.47;;;18.00;1.00;19.00;99918.00;;;;5002965;28;20524;-74
2021/07/31 05:07:04;;;;;;;8.37;2.07;;;18.00;1.00;19.00;99897.00;;;;5004356;28;20464;-75
2021/07/31 05:09:34;;;;;;;5.83;1.73;;;18.10;1.00;19.10;99930.00;;;;5003794;28;20446;-74
2021/07/31 05:12:03;;;;;;;4.93;1.80;;;18.10;1.00;19.10;99904.00;;;;5004580;28;20475;-74
2021/07/31 05:14:32;;;;;;;5.90;1.90;;;18.20;1.00;19.10;99919.00;;;;5010495;28;20472;-74
2021/07/31 05:17:00;;;;;;;2.70;1.57;;;18.20;1.00;19.20;99927.00;;;;5003006;28;20492;-74
2021/07/31 05:19:29;;;;;;;5.20;2.10;;;18.20;1.00;19.30;99921.00;;;;4999745;28;20539;-74
2021/07/31 05:21:58;;;;;;;4.77;2.00;;;18.30;1.00;19.20;99931.00;;;;5007772;28;20478;-76
2021/07/31 05:24:26;;;;;;;4.50;1.70;;;18.30;1.00;19.30;99916.00;;;;5023858;28;21178;-74
2021/07/31 05:26:56;;;;;;;6.40;2.10;;;18.40;1.00;19.40;99922.00;;;;5025058;28;20819;-76
2021/07/31 05:29:24;;;;;;;4.00;2.17;;;18.40;1.00;19.40;99881.00;;;;5021795;28;20458;-74
2021/07/31 05:31:52;;;;;;;4.83;2.07;;;18.50;1.00;19.50;99903.00;;;;5003708;28;20573;-76
2021/07/31 05:34:21;;;;;;;5.83;2.33;;;18.50;1.00;19.40;99907.00;;;;5002278;28;20449;-75
2021/07/31 05:36:49;;;;;;;4.83;2.13;;;18.50;1.00;19.40;99928.00;;;;5003023;28;21434;-75
2021/07/31 05:39:17;;;;;;;4.60;1.93;;;18.50;1.00;19.60;99896.00;;;;5000547;28;20993;-75
2021/07/31 05:41:46;;;;;;;5.90;1.87;;;18.60;1.00;19.60;99946.00;;;;5001911;28;20485;-74
2021/07/31 05:44:16;;;;;;;5.53;2.50;;;18.60;1.00;19.70;99935.00;;;;4999316;28;20486;-75
2021/07/31 05:46:44;;;;;;;3.80;2.00;;;18.80;1.00;19.70;99933.00;;;;4998096;28;20489;-76
2021/07/31 05:49:12;;;;;;;7.07;2.13;;;18.70;1.00;19.80;99920.00;;;;4999579;28;20454;-74
2021/07/31 05:51:41;;;;;;;7.87;2.00;;;18.80;1.00;19.80;99811.00;;;;5000450;28;20573;-74
2021/07/31 05:54:09;;;;;;;3.20;1.80;;;18.80;1.00;19.80;99931.00;;;;5002048;28;21034;-75
2021/07/31 05:56:37;;;;;;;5.27;1.80;;;18.80;1.00;19.90;99905.00;;;;5000317;28;20556;-74
2021/07/31 05:59:09;;;;;;;7.00;1.87;;;18.90;1.00;19.90;99934.00;;;;5001558;28;21182;-74
2021/07/31 06:01:38;;;;;;;2.83;1.83;;;18.90;1.00;19.90;99891.00;;;;5004789;28;21280;-74
2021/07/31 06:04:07;;;;;;;3.13;1.60;;;19.00;1.00;20.00;99936.00;;;;5007711;28;20450;-75
2021/07/31 06:06:36;;;;;;;6.47;2.13;;;19.00;1.00;19.90;99875.00;;;;5013101;28;20469;-75
2021/07/31 06:09:04;;;;;;;7.67;2.40;;;19.00;1.00;20.00;99940.00;;;;5002565;28;20485;-75
2021/07/31 06:11:33;;;;;;;6.17;2.03;;;19.10;1.00;20.20;99895.00;;;;4999722;28;20486;-76
2021/07/31 06:14:01;;;;;;;6.20;1.97;;;19.10;1.00;20.20;99939.00;;;;5000597;28;20539;-75
2021/07/31 06:16:29;;;;;;;4.67;2.23;;;19.20;1.00;20.20;99922.00;;;;5002574;28;20448;-76
2021/07/31 06:19:00;;;;;;;4.03;1.77;;;19.30;1.00;20.10;99929.00;;;;4999666;28;20461;-76
2021/07/31 06:21:28;;;;;;;5.93;1.80;;;19.20;1.00;20.10;99933.00;;;;5000409;28;20477;-75
2021/07/31 06:23:57;;;;;;;6.10;2.07;;;19.20;1.00;20.10;99902.00;;;;5000198;28;20504;-75
2021/07/31 06:26:25;;;;;;;6.43;2.50;;;19.10;1.00;20.10;99881.00;;;;4998832;28;20883;-75
2021/07/31 06:28:53;;;;;;;5.73;1.93;;;19.20;1.00;20.20;99931.00;;;;4995159;28;20450;-75
2021/07/31 06:31:22;;;;;;;5.80;2.17;;;19.30;1.00;20.30;99938.00;;;;4998855;28;20478;-76
2021/07/31 06:33:50;;;;;;;7.90;2.60;;;19.30;1.00;20.30;99956.00;;;;4998791;28;20469;-75
2021/07/31 06:36:21;;;;;;;4.47;1.80;;;19.40;1.00;20.40;99951.00;;;;5001801;28;20466;-75
2021/07/31 06:38:49;;;;;;;8.93;2.33;;;19.40;1.00;20.40;99916.00;;;;4999121;28;21274;-75
2021/07/31 06:41:18;;;;;;;3.93;1.70;;;19.40;1.00;20.30;99952.00;;;;5001317;28;20869;-73
2021/07/31 06:43:46;;;;;;;6.07;2.20;;;19.40;1.00;20.40;99946.00;;;;4998105;28;20473;-74
2021/07/31 06:46:16;;;;;;;3.20;1.60;;;19.50;1.00;20.50;99947.00;;;;4999310;28;21190;-74
2021/07/31 06:48:45;;;;;;;4.03;1.80;;;19.60;1.00;20.50;99936.00;;;;4998905;28;20458;-75
2021/07/31 06:51:15;;;;;;;5.50;2.63;;;19.60;1.00;20.70;99955.00;;;;5001395;28;20477;-76
2021/07/31 06:53:44;;;;;;;4.37;2.03;;;19.70;1.00;20.60;99950.00;;;;5012699;28;20929;-74
2021/07/31 06:56:13;;;;;;;5.20;2.17;;;19.70;1.00;20.70;99956.00;;;;5024611;28;20469;-77
2021/07/31 06:58:41;;;;;;;4.83;1.83;;;19.80;1.00;20.70;99940.00;;;;5022963;28;20454;-75
2021/07/31 07:01:10;;;;;;;2.70;2.17;;;19.80;1.00;20.60;99950.00;;;;5008544;28;20974;-75
2021/07/31 07:03:40;;;;;;;4.57;2.37;;;19.80;1.00;20.60;99947.00;;;;5005457;28;20511;-76
2021/07/31 07:06:10;;;;;;;4.07;2.00;;;19.80;1.00;20.70;99942.00;;;;5004401;28;20464;-75
2021/07/31 07:08:39;;;;;;;5.23;1.97;;;19.80;1.00;20.80;99954.00;;;;5003445;28;20461;-76
2021/07/31 07:11:14;;;;;;;3.17;2.10;;;20.00;1.00;20.80;99914.00;;;;5001469;28;20466;-76
2021/07/31 07:13:43;;;;;;;4.97;2.00;;;20.00;1.00;20.70;99938.00;;;;5009611;28;20445;-76
2021/07/31 07:16:12;;;;;;;4.30;1.83;;;20.00;1.00;20.80;99943.00;;;;5017649;28;20441;-76
2021/07/31 07:18:41;;;;;;;4.17;2.27;;;20.00;1.00;20.90;99948.00;;;;5013987;28;20473;-76
2021/07/31 07:21:11;;;;;;;6.93;1.97;;;20.10;1.00;20.90;99945.00;;;;5032907;28;20481;-74
2021/07/31 07:23:40;;;;;;;7.03;2.10;;;20.20;1.00;20.90;99948.00;;;;5012059;28;20893;-76
2021/07/31 07:26:12;;;;;;;3.07;1.93;;;20.20;1.00;20.80;99923.00;;;;5003132;28;20881;-76
2021/07/31 07:28:41;;;;;;;4.80;2.13;;;20.30;1.00;21.00;99952.00;;;;5004767;28;20456;-73
2021/07/31 07:31:12;;;;;;;9.17;2.07;;;20.20;1.00;21.10;99917.00;;;;5004875;28;20478;-73
2021/07/31 07:33:42;;;;;;;5.53;1.90;;;20.30;1.00;21.10;99946.00;;;;5001064;28;20465;-76
2021/07/31 07:36:15;;;;;;;5.77;2.00;;;20.40;1.00;21.20;99915.00;;;;5001127;28;20924;-78
2021/07/31 07:38:44;;;;;;;3.60;2.10;;;20.50;1.00;21.20;99943.00;;;;5002416;28;20457;-75
2021/07/31 07:41:15;;;;;;;4.10;1.77;;;20.50;1.00;21.10;99918.00;;;;4999502;28;20484;-74
2021/07/31 07:43:44;;;;;;;5.50;2.13;;;20.40;1.00;21.10;99953.00;;;;4996215;28;20540;-74
2021/07/31 07:46:16;;;;;;;3.67;2.20;;;20.50;1.00;21.20;99934.00;;;;5002245;28;20462;-74
2021/07/31 07:48:46;;;;;;;4.40;2.00;;;20.50;1.00;21.10;99921.00;;;;4999870;28;20536;-76
2021/07/31 07:51:15;;;;;;;3.40;1.90;;;20.50;1.00;21.20;99952.00;;;;4997341;28;21042;-75
2021/07/31 07:53:44;;;;;;;3.60;1.63;;;20.60;1.00;21.30;99952.00;;;;4997085;28;20995;-77
2021/07/31 07:56:14;;;;;;;4.70;2.73;;;20.70;1.00;21.40;99940.00;;;;4999285;28;20450;-74
2021/07/31 07:58:42;;;;;;;4.40;2.10;;;20.80;1.00;21.50;99938.00;;;;5007709;28;20963;-77
2021/07/31 08:01:11;;;;;;;8.37;2.20;;;20.80;1.00;21.60;99947.00;;;;4992988;28;20941;-77
2021/07/31 08:03:40;;;;;;;3.80;2.33;;;20.90;1.00;21.70;99962.00;;;;4998995;28;20480;-76
2021/07/31 08:06:08;;;;;;;5.53;2.00;;;21.00;1.00;21.70;99950.00;;;;5003932;28;20520;-76
2021/07/31 08:08:37;;;;;;;6.03;2.40;;;21.10;1.00;21.80;99956.00;;;;5000953;28;20517;-76
2021/07/31 08:11:09;;;;;;;3.90;2.10;;;21.20;1.00;21.90;99922.00;;;;4999947;28;20477;-76
2021/07/31 08:13:38;;;;;;;4.63;1.90;;;21.40;1.00;22.10;99953.00;;;;4996844;28;20492;-77
2021/07/31 08:16:07;;;;;;;4.17;1.60;;;21.50;1.00;22.30;99947.00;;;;4999993;28;20517;-76
2021/07/31 08:18:35;;;;;;;6.23;1.87;;;21.60;1.00;22.30;99932.00;;;;5004773;28;20463;-78
2021/07/31 08:21:04;;;;;;;4.10;1.70;;;21.60;1.00;22.50;99950.00;;;;5000854;28;20557;-76
2021/07/31 08:23:33;;;;;;;4.13;2.03;;;21.80;1.00;22.50;99958.00;;;;5000725;28;20879;-76
2021/07/31 08:26:05;;;;;;;3.70;2.10;;;21.80;1.00;22.60;99944.00;;;;4989677;28;20453;-75
2021/07/31 08:28:33;;;;;;;5.20;2.00;;;22.20;1.00;22.60;99947.00;;;;5003445;28;21037;-74
2021/07/31 08:31:03;;;;;;;4.37;2.40;;;22.10;1.00;22.80;99913.00;;;;5005216;28;20473;-77
2021/07/31 08:33:33;;;;;;;3.70;1.90;;;22.10;1.00;23.10;99964.00;;;;5010634;28;20460;-76
2021/07/31 08:36:03;;;;;;;2.47;1.90;;;22.30;1.00;23.50;99955.00;;;;5008213;28;20450;-76
2021/07/31 08:38:32;;;;;;;3.57;1.83;;;22.80;1.00;23.90;99963.00;;;;5006108;28;20454;-76
2021/07/31 08:41:03;;;;;;;2.43;1.70;;;23.00;1.00;23.50;99958.00;;;;5021020;28;20557;-76
2021/07/31 08:43:32;;;;;;;5.13;2.23;;;22.70;1.00;24.00;99934.00;;;;5005297;28;20491;-77
2021/07/31 08:46:07;;;;;;;3.67;2.10;;;23.10;1.00;23.70;99967.00;;;;5005661;28;20439;-77
2021/07/31 08:48:36;;;;;;;3.03;2.20;;;23.00;1.00;23.80;99941.00;;;;5004209;28;20453;-76
2021/07/31 08:51:05;;;;;;;4.00;1.83;;;22.90;1.00;23.80;99952.00;;;;5003529;28;20550;-75
2021/07/31 08:53:33;;;;;;;4.30;2.03;;;23.10;1.00;24.00;99940.00;;;;5003208;28;20500;-76
2021/07/31 08:56:02;;;;;;;5.60;2.13;;;23.20;1.00;24.00;99954.00;;;;5004183;28;20545;-78
2021/07/31 08:58:30;;;;;;;6.47;2.20;;;23.10;1.00;23.80;99942.00;;;;5000465;28;20462;-75
2021/07/31 09:00:59;;;;;;;3.13;2.10;;;23.00;1.00;24.00;99933.00;;;;4997702;28;20494;-77
2021/07/31 09:03:29;;;;;;;7.67;2.00;;;23.10;1.00;24.30;99873.00;;;;4992450;28;21260;-78
2021/07/31 09:05:57;;;;;;;2.53;1.60;;;23.40;1.00;24.30;99956.00;;;;5003888;28;20471;-76
2021/07/31 09:08:26;;;;;;;2.20;1.60;;;23.50;1.00;23.70;99945.00;;;;5002063;28;20523;-77
2021/07/31 09:10:54;;;;;;;3.43;2.10;;;23.30;1.00;23.70;99929.00;;;;5003351;28;20505;-75
2021/07/31 09:13:28;;;;;;;3.40;1.80;;;23.20;1.00;23.80;99942.00;;;;5000975;28;21339;-77
2021/07/31 09:15:56;;;;;;;3.63;2.10;;;23.10;1.00;23.80;99956.00;;;;5003291;28;21641;-77
2021/07/31 09:18:32;;;;;;;3.73;2.00;;;23.00;1.00;23.80;99959.00;;;;4998039;28;20528;-77
2021/07/31 09:21:06;;;;;;;2.30;1.50;;;22.80;1.00;24.30;99949.00;;;;4998411;28;20481;-76
2021/07/31 09:23:45;;;;;;;3.30;1.80;;;23.20;1.00;24.30;99958.00;;;;4999382;28;20516;-78
2021/07/31 09:26:20;;;;;;;3.53;1.80;;;23.50;1.00;23.90;99948.00;;;;5003354;28;20460;-76
2021/07/31 09:29:01;;;;;;;2.67;1.90;;;23.40;1.00;24.30;99961.00;;;;5003810;28;20499;-75
2021/07/31 09:31:31;;;;;;;3.47;2.40;;;23.50;1.00;24.20;99952.00;;;;5002296;28;20558;-75
2021/07/31 09:34:03;;;;;;;5.20;1.90;;;23.40;1.00;23.90;99956.00;;;;5002197;28;20623;-76
2021/07/31 09:36:40;;;;;;;3.30;2.10;;;23.10;1.00;23.70;99947.00;;;;5004455;28;20456;-79
2021/07/31 09:39:11;;;;;;;3.03;1.80;;;23.00;1.00;24.00;99933.00;;;;5003212;28;20964;-76
2021/07/31 09:41:41;;;;;;;3.73;1.90;;;23.30;1.00;23.80;99953.00;;;;5004190;28;21254;-76
2021/07/31 09:44:15;;;;;;;3.13;1.50;;;23.10;1.00;23.80;99952.00;;;;5002767;28;20513;-76
2021/07/31 09:46:49;;;;;;;2.37;1.60;;;23.10;1.00;23.50;99948.00;;;;5003992;28;20505;-77
2021/07/31 09:49:21;;;;;;;2.40;1.80;;;22.90;1.00;23.70;99966.00;;;;4994475;28;20502;-76
2021/07/31 09:51:51;;;;;;;6.40;2.37;;;22.90;1.00;23.80;99947.00;;;;4998073;28;20477;-75
2021/07/31 09:54:22;;;;;;;3.50;1.53;;;23.10;1.00;24.00;99946.00;;;;4998993;28;20462;-76
2021/07/31 09:56:52;;;;;;;2.27;1.57;;;23.40;1.00;24.30;99921.00;;;;5005768;28;20458;-76
2021/07/31 09:59:22;;;;;;;5.60;2.17;;;23.70;1.00;24.30;99944.00;;;;5000939;28;20451;-76
2021/07/31 10:01:59;;;;;;;1.90;1.70;;;23.90;1.00;24.10;99939.00;;;;5001041;28;20513;-76
2021/07/31 10:04:30;;;;;;;4.00;1.97;;;23.70;1.00;24.40;99937.00;;;;5001935;28;20528;-75
2021/07/31 10:07:03;;;;;;;2.80;1.60;;;23.90;1.00;24.30;99949.00;;;;5001400;28;20454;-76
2021/07/31 10:09:32;;;;;;;3.63;1.90;;;23.90;1.00;23.60;99877.00;;;;5002885;28;20564;-76
2021/07/31 10:12:03;;;;;;;2.93;2.13;;;23.80;1.00;24.40;99914.00;;;;5003697;28;21469;-76
2021/07/31 10:14:32;;;;;;;3.30;2.03;;;23.90;1.00;24.40;99946.00;;;;4990303;28;20493;-76
2021/07/31 10:17:01;;;;;;;6.10;2.00;;;24.00;1.00;24.30;99928.00;;;;5000095;28;20454;-75
2021/07/31 10:19:39;;;;;;;3.53;1.83;;;23.80;1.00;24.40;99945.00;;;;5002205;28;20465;-75
2021/07/31 10:22:08;;;;;;;1.97;1.47;;;23.90;1.00;24.70;99945.00;;;;5019329;28;20474;-75
2021/07/31 10:25:07;;;;;;;2.20;1.97;;;24.20;1.00;24.80;99910.00;;;;5017119;28;20506;-76
2021/07/31 10:27:36;;;;;;;3.17;1.67;;;24.40;1.00;24.70;99938.00;;;;4994788;28;20556;-76
2021/07/31 10:30:24;;;;;;;2.30;1.60;;;24.10;1.00;24.90;99938.00;;;;5002813;28;20503;-76
2021/07/31 10:32:53;;;;;;;3.30;1.53;;;24.30;1.00;24.90;99927.00;;;;5001191;28;20595;-76
2021/07/31 10:35:35;;;;;;;5.67;1.97;;;24.40;1.00;25.10;99948.00;;;;4998658;28;20510;-77
2021/07/31 10:38:10;;;;;;;1.90;1.50;;;24.70;1.00;24.90;99925.00;;;;5000818;28;20441;-76
2021/07/31 10:40:48;;;;;;;3.40;2.93;;;24.50;1.00;25.40;99937.00;;;;5001402;28;20824;-75
2021/07/31 10:43:17;;;;;;;2.10;1.30;;;24.90;1.00;25.20;99913.00;;;;5000850;28;21034;-76
2021/07/31 10:45:49;;;;;;;2.90;2.03;;;24.90;1.00;25.80;99922.00;;;;5012689;28;20475;-76
2021/07/31 10:48:35;;;;;;;1.97;1.27;;;25.00;1.00;26.10;99914.00;;;;5006642;28;20490;-76
2021/07/31 10:51:05;;;;;;;4.80;2.83;;;25.30;1.00;26.60;99858.00;;;;5001385;28;20524;-76
2021/07/31 10:53:54;;;;;;;3.10;2.03;;;25.90;1.00;26.90;99907.00;;;;5001460;28;20558;-76
2021/07/31 10:56:22;;;;;;;2.20;1.40;;;26.20;1.00;26.50;99917.00;;;;5008977;28;20565;-76
2021/07/31 10:59:17;;;;;;;2.33;1.83;;;26.20;1.00;26.80;99909.00;;;;5000099;28;20830;-77
2021/07/31 11:01:46;;;;;;;2.70;1.70;;;26.10;1.00;26.70;99911.00;;;;5005221;28;20573;-77
2021/07/31 11:05:01;;;;;;;2.57;1.83;;;26.10;1.00;26.50;99888.00;;;;5005677;28;20482;-77
2021/07/31 11:07:31;;;;;;;4.60;1.83;;;26.10;1.00;26.50;99888.00;;;;4997760;28;20484;-77
2021/07/31 11:10:42;;;;;;;2.23;1.90;;;25.90;1.00;26.70;99928.00;;;;5015735;28;20507;-77
2021/07/31 11:13:11;;;;;;;3.30;1.60;;;26.20;1.00;26.40;99939.00;;;;4996385;28;21024;-77
2021/07/31 11:16:18;;;;;;;4.17;1.77;;;26.10;1.00;26.40;99944.00;;;;5000079;28;20454;-78
2021/07/31 11:18:49;;;;;;;2.60;1.53;;;26.00;1.00;26.40;99907.00;;;;5006324;28;20503;-77
2021/07/31 11:21:23;;;;;;;2.43;1.50;;;25.90;1.00;26.60;99911.00;;;;4995853;28;20594;-77